sensor_id;sensor_type;location;lat;lon;timestamp;P1;durP1;ratioP1;P2;durP2;ratioP2
26864;SDS011;40618;51.166;10.322;2023-08-07T00:00:51;1.17;;;0.40;;
26864;SDS011;40618;51.166;10.322;2023-08-07T00:03:17;0.55;;;0.43;;
26864;SDS011;40618;51.166;10.322;2023-08-07T00:05:49;0.80;;;0.38;;
26864;SDS011;40618;51.166;10.322;2023-08-07T00:08:18;0.32;;;0.30;;
26864;SDS011;40618;51.166;10.322;2023-08-07T00:10:44;0.50;;;0.50;;
26864;SDS011;40618;51.166;10.322;2023-08-07T00:13:09;0.98;;;0.70;;
26864;SDS011;40618;51.166;10.322;2023-08-07T00:15:37;2.17;;;1.20;;
26864;SDS011;40618;51.166;10.322;2023-08-07T00:18:03;1.52;;;0.98;;
26864;SDS011;40618;51.166;10.322;2023-08-07T00:20:29;0.98;;;0.85;;
26864;SDS011;40618;51.166;10.322;2023-08-07T00:22:55;1.23;;;0.90;;
26864;SDS011;40618;51.166;10.322;2023-08-07T00:25:21;0.98;;;0.65;;
26864;SDS011;40618;51.166;10.322;2023-08-07T00:27:47;2.20;;;1.25;;
26864;SDS011;40618;51.166;10.322;2023-08-07T00:30:13;1.92;;;1.10;;
26864;SDS011;40618;51.166;10.322;2023-08-07T00:32:38;1.50;;;1.00;;
26864;SDS011;40618;51.166;10.322;2023-08-07T00:35:04;1.10;;;0.93;;
26864;SDS011;40618;51.166;10.322;2023-08-07T00:37:31;2.08;;;1.17;;
26864;SDS011;40618;51.166;10.322;2023-08-07T00:39:56;2.92;;;1.10;;
26864;SDS011;40618;51.166;10.322;2023-08-07T00:42:22;1.92;;;0.90;;
26864;SDS011;40618;51.166;10.322;2023-08-07T00:44:48;1.30;;;1.00;;
26864;SDS011;40618;51.166;10.322;2023-08-07T00:47:13;2.13;;;1.20;;
26864;SDS011;40618;51.166;10.322;2023-08-07T00:49:39;1.17;;;0.82;;
26864;SDS011;40618;51.166;10.322;2023-08-07T00:52:06;1.15;;;0.93;;
26864;SDS011;40618;51.166;10.322;2023-08-07T00:54:32;0.77;;;0.60;;
26864;SDS011;40618;51.166;10.322;2023-08-07T00:56:59;0.80;;;0.70;;
26864;SDS011;40618;51.166;10.322;2023-08-07T00:59:38;1.10;;;0.57;;
26864;SDS011;40618;51.166;10.322;2023-08-07T01:02:05;0.98;;;0.70;;
26864;SDS011;40618;51.166;10.322;2023-08-07T01:04:31;1.05;;;0.70;;
26864;SDS011;40618;51.166;10.322;2023-08-07T01:06:57;1.50;;;1.00;;
26864;SDS011;40618;51.166;10.322;2023-08-07T01:09:22;2.00;;;0.85;;
26864;SDS011;40618;51.166;10.322;2023-08-07T01:11:50;1.52;;;1.00;;
26864;SDS011;40618;51.166;10.322;2023-08-07T01:14:52;0.90;;;0.82;;
26864;SDS011;40618;51.166;10.322;2023-08-07T01:17:23;1.42;;;1.10;;
26864;SDS011;40618;51.166;10.322;2023-08-07T01:19:51;1.05;;;0.93;;
26864;SDS011;40618;51.166;10.322;2023-08-07T01:22:20;2.53;;;0.93;;
26864;SDS011;40618;51.166;10.322;2023-08-07T01:24:48;0.60;;;0.60;;
26864;SDS011;40618;51.166;10.322;2023-08-07T01:35:26;0.80;;;0.80;;
26864;SDS011;40618;51.166;10.322;2023-08-07T01:37:57;1.20;;;0.65;;
26864;SDS011;40618;51.166;10.322;2023-08-07T01:40:25;3.28;;;0.90;;
26864;SDS011;40618;51.166;10.322;2023-08-07T01:42:53;1.00;;;0.75;;
26864;SDS011;40618;51.166;10.322;2023-08-07T01:45:23;1.30;;;0.63;;
26864;SDS011;40618;51.166;10.322;2023-08-07T01:47:50;0.63;;;0.50;;
26864;SDS011;40618;51.166;10.322;2023-08-07T01:50:18;1.15;;;0.80;;
26864;SDS011;40618;51.166;10.322;2023-08-07T01:52:47;0.88;;;0.60;;
26864;SDS011;40618;51.166;10.322;2023-08-07T01:55:15;1.15;;;0.68;;
26864;SDS011;40618;51.166;10.322;2023-08-07T01:57:42;1.98;;;0.90;;
26864;SDS011;40618;51.166;10.322;2023-08-07T02:00:08;3.03;;;0.70;;
26864;SDS011;40618;51.166;10.322;2023-08-07T02:02:35;0.98;;;0.70;;
26864;SDS011;40618;51.166;10.322;2023-08-07T02:05:02;0.77;;;0.70;;
26864;SDS011;40618;51.166;10.322;2023-08-07T02:07:29;0.85;;;0.77;;
26864;SDS011;40618;51.166;10.322;2023-08-07T02:09:55;0.70;;;0.68;;
26864;SDS011;40618;51.166;10.322;2023-08-07T02:12:21;0.70;;;0.50;;
26864;SDS011;40618;51.166;10.322;2023-08-07T02:14:47;0.65;;;0.47;;
26864;SDS011;40618;51.166;10.322;2023-08-07T02:17:13;1.33;;;0.85;;
26864;SDS011;40618;51.166;10.322;2023-08-07T02:19:39;3.10;;;0.70;;
26864;SDS011;40618;51.166;10.322;2023-08-07T02:22:05;1.92;;;0.47;;
26864;SDS011;40618;51.166;10.322;2023-08-07T02:24:31;1.20;;;0.63;;
26864;SDS011;40618;51.166;10.322;2023-08-07T02:26:57;0.88;;;0.50;;
26864;SDS011;40618;51.166;10.322;2023-08-07T02:29:23;1.30;;;0.50;;
26864;SDS011;40618;51.166;10.322;2023-08-07T02:31:49;1.35;;;0.47;;
26864;SDS011;40618;51.166;10.322;2023-08-07T02:34:15;1.02;;;0.70;;
26864;SDS011;40618;51.166;10.322;2023-08-07T02:36:40;2.78;;;0.60;;
26864;SDS011;40618;51.166;10.322;2023-08-07T02:39:06;1.35;;;0.60;;
26864;SDS011;40618;51.166;10.322;2023-08-07T02:41:32;0.80;;;0.80;;
26864;SDS011;40618;51.166;10.322;2023-08-07T02:43:58;2.72;;;0.63;;
26864;SDS011;40618;51.166;10.322;2023-08-07T02:46:23;0.82;;;0.50;;
26864;SDS011;40618;51.166;10.322;2023-08-07T02:48:49;1.65;;;0.75;;
26864;SDS011;40618;51.166;10.322;2023-08-07T02:51:15;2.20;;;0.60;;
26864;SDS011;40618;51.166;10.322;2023-08-07T02:53:41;0.50;;;0.47;;
26864;SDS011;40618;51.166;10.322;2023-08-07T02:56:06;0.43;;;0.40;;
26864;SDS011;40618;51.166;10.322;2023-08-07T02:58:32;0.70;;;0.52;;
26864;SDS011;40618;51.166;10.322;2023-08-07T03:01:08;0.50;;;0.50;;
26864;SDS011;40618;51.166;10.322;2023-08-07T03:03:34;0.60;;;0.50;;
26864;SDS011;40618;51.166;10.322;2023-08-07T03:06:00;0.80;;;0.40;;
26864;SDS011;40618;51.166;10.322;2023-08-07T03:08:26;1.13;;;0.43;;
26864;SDS011;40618;51.166;10.322;2023-08-07T03:10:52;0.65;;;0.43;;
26864;SDS011;40618;51.166;10.322;2023-08-07T03:13:26;0.50;;;0.50;;
26864;SDS011;40618;51.166;10.322;2023-08-07T03:16:02;1.05;;;0.43;;
26864;SDS011;40618;51.166;10.322;2023-08-07T03:18:31;2.17;;;0.52;;
26864;SDS011;40618;51.166;10.322;2023-08-07T03:20:57;0.47;;;0.30;;
26864;SDS011;40618;51.166;10.322;2023-08-07T03:23:24;0.20;;;0.20;;
26864;SDS011;40618;51.166;10.322;2023-08-07T03:26:00;0.30;;;0.30;;
26864;SDS011;40618;51.166;10.322;2023-08-07T03:28:29;0.30;;;0.30;;
26864;SDS011;40618;51.166;10.322;2023-08-07T03:30:54;1.70;;;0.30;;
26864;SDS011;40618;51.166;10.322;2023-08-07T03:33:20;1.27;;;0.20;;
26864;SDS011;40618;51.166;10.322;2023-08-07T03:35:46;3.38;;;0.25;;
26864;SDS011;40618;51.166;10.322;2023-08-07T03:38:12;0.47;;;0.30;;
26864;SDS011;40618;51.166;10.322;2023-08-07T03:40:37;0.20;;;0.20;;
26864;SDS011;40618;51.166;10.322;2023-08-07T03:43:03;0.30;;;0.30;;
26864;SDS011;40618;51.166;10.322;2023-08-07T03:45:29;0.52;;;0.45;;
26864;SDS011;40618;51.166;10.322;2023-08-07T03:47:54;1.15;;;0.50;;
26864;SDS011;40618;51.166;10.322;2023-08-07T03:50:20;0.38;;;0.35;;
26864;SDS011;40618;51.166;10.322;2023-08-07T03:52:46;0.73;;;0.55;;
26864;SDS011;40618;51.166;10.322;2023-08-07T03:55:12;0.50;;;0.40;;
26864;SDS011;40618;51.166;10.322;2023-08-07T03:57:37;0.60;;;0.40;;
26864;SDS011;40618;51.166;10.322;2023-08-07T04:00:03;0.82;;;0.47;;
26864;SDS011;40618;51.166;10.322;2023-08-07T04:02:30;0.30;;;0.30;;
26864;SDS011;40618;51.166;10.322;2023-08-07T04:04:56;1.30;;;0.40;;
26864;SDS011;40618;51.166;10.322;2023-08-07T04:07:22;1.00;;;0.38;;
26864;SDS011;40618;51.166;10.322;2023-08-07T04:09:48;1.13;;;0.30;;
26864;SDS011;40618;51.166;10.322;2023-08-07T04:12:14;0.68;;;0.52;;
26864;SDS011;40618;51.166;10.322;2023-08-07T04:14:39;0.63;;;0.30;;
26864;SDS011;40618;51.166;10.322;2023-08-07T04:17:05;0.80;;;0.30;;
26864;SDS011;40618;51.166;10.322;2023-08-07T04:19:31;0.35;;;0.30;;
26864;SDS011;40618;51.166;10.322;2023-08-07T04:21:57;0.45;;;0.45;;
26864;SDS011;40618;51.166;10.322;2023-08-07T04:24:22;1.40;;;0.40;;
26864;SDS011;40618;51.166;10.322;2023-08-07T04:26:48;0.73;;;0.30;;
26864;SDS011;40618;51.166;10.322;2023-08-07T04:29:14;0.90;;;0.40;;
26864;SDS011;40618;51.166;10.322;2023-08-07T04:31:40;0.50;;;0.50;;
26864;SDS011;40618;51.166;10.322;2023-08-07T04:34:05;1.00;;;0.75;;
26864;SDS011;40618;51.166;10.322;2023-08-07T04:36:31;0.60;;;0.40;;
26864;SDS011;40618;51.166;10.322;2023-08-07T04:38:58;0.30;;;0.30;;
26864;SDS011;40618;51.166;10.322;2023-08-07T04:41:23;2.33;;;0.38;;
26864;SDS011;40618;51.166;10.322;2023-08-07T04:43:49;0.30;;;0.30;;
26864;SDS011;40618;51.166;10.322;2023-08-07T04:46:15;1.65;;;0.20;;
26864;SDS011;40618;51.166;10.322;2023-08-07T04:48:41;0.35;;;0.30;;
26864;SDS011;40618;51.166;10.322;2023-08-07T04:51:07;0.20;;;0.20;;
26864;SDS011;40618;51.166;10.322;2023-08-07T04:53:32;0.30;;;0.30;;
26864;SDS011;40618;51.166;10.322;2023-08-07T04:56:02;0.50;;;0.40;;
26864;SDS011;40618;51.166;10.322;2023-08-07T04:58:28;3.38;;;0.30;;
26864;SDS011;40618;51.166;10.322;2023-08-07T05:00:54;0.60;;;0.30;;
26864;SDS011;40618;51.166;10.322;2023-08-07T05:03:21;0.30;;;0.30;;
26864;SDS011;40618;51.166;10.322;2023-08-07T05:05:47;2.80;;;0.52;;
26864;SDS011;40618;51.166;10.322;2023-08-07T05:08:13;0.35;;;0.35;;
26864;SDS011;40618;51.166;10.322;2023-08-07T05:10:38;0.40;;;0.40;;
26864;SDS011;40618;51.166;10.322;2023-08-07T05:13:04;0.85;;;0.40;;
26864;SDS011;40618;51.166;10.322;2023-08-07T05:15:30;0.40;;;0.40;;
26864;SDS011;40618;51.166;10.322;2023-08-07T05:17:56;0.40;;;0.40;;
26864;SDS011;40618;51.166;10.322;2023-08-07T05:20:22;0.38;;;0.32;;
26864;SDS011;40618;51.166;10.322;2023-08-07T05:22:48;0.70;;;0.30;;
26864;SDS011;40618;51.166;10.322;2023-08-07T05:25:15;0.40;;;0.40;;
26864;SDS011;40618;51.166;10.322;2023-08-07T05:27:45;0.57;;;0.30;;
26864;SDS011;40618;51.166;10.322;2023-08-07T05:30:12;0.32;;;0.32;;
26864;SDS011;40618;51.166;10.322;2023-08-07T05:32:38;0.68;;;0.30;;
26864;SDS011;40618;51.166;10.322;2023-08-07T05:35:04;0.52;;;0.32;;
26864;SDS011;40618;51.166;10.322;2023-08-07T05:37:32;0.20;;;0.20;;
26864;SDS011;40618;51.166;10.322;2023-08-07T05:39:58;1.33;;;0.30;;
26864;SDS011;40618;51.166;10.322;2023-08-07T05:42:24;0.45;;;0.22;;
26864;SDS011;40618;51.166;10.322;2023-08-07T05:44:50;1.02;;;0.50;;
26864;SDS011;40618;51.166;10.322;2023-08-07T05:47:16;0.45;;;0.40;;
26864;SDS011;40618;51.166;10.322;2023-08-07T05:49:42;1.20;;;0.25;;
26864;SDS011;40618;51.166;10.322;2023-08-07T05:52:07;0.52;;;0.40;;
26864;SDS011;40618;51.166;10.322;2023-08-07T05:54:36;0.10;;;0.10;;
26864;SDS011;40618;51.166;10.322;2023-08-07T05:57:02;0.17;;;0.10;;
26864;SDS011;40618;51.166;10.322;2023-08-07T05:59:28;0.03;;;0.03;;
26864;SDS011;40618;51.166;10.322;2023-08-07T06:01:54;0.20;;;0.05;;
26864;SDS011;40618;51.166;10.322;2023-08-07T06:04:20;0.20;;;0.10;;
26864;SDS011;40618;51.166;10.322;2023-08-07T06:06:47;0.13;;;0.10;;
26864;SDS011;40618;51.166;10.322;2023-08-07T06:09:13;0.20;;;0.10;;
26864;SDS011;40618;51.166;10.322;2023-08-07T06:11:42;1.30;;;0.10;;
26864;SDS011;40618;51.166;10.322;2023-08-07T06:14:08;1.45;;;0.10;;
26864;SDS011;40618;51.166;10.322;2023-08-07T06:16:34;0.05;;;0.05;;
26864;SDS011;40618;51.166;10.322;2023-08-07T06:19:00;0.30;;;0.10;;
26864;SDS011;40618;51.166;10.322;2023-08-07T06:21:25;0.10;;;0.00;;
26864;SDS011;40618;51.166;10.322;2023-08-07T06:23:53;0.10;;;0.10;;
26864;SDS011;40618;51.166;10.322;2023-08-07T06:26:19;0.10;;;0.00;;
26864;SDS011;40618;51.166;10.322;2023-08-07T06:28:45;0.00;;;0.00;;
26864;SDS011;40618;51.166;10.322;2023-08-07T06:31:11;0.00;;;0.00;;
26864;SDS011;40618;51.166;10.322;2023-08-07T06:33:37;0.00;;;0.00;;
26864;SDS011;40618;51.166;10.322;2023-08-07T06:36:03;0.57;;;0.08;;
26864;SDS011;40618;51.166;10.322;2023-08-07T06:38:30;0.38;;;0.00;;
26864;SDS011;40618;51.166;10.322;2023-08-07T06:40:56;0.57;;;0.10;;
26864;SDS011;40618;51.166;10.322;2023-08-07T06:43:21;0.10;;;0.00;;
26864;SDS011;40618;51.166;10.322;2023-08-07T06:45:51;0.20;;;0.00;;
26864;SDS011;40618;51.166;10.322;2023-08-07T06:48:21;0.75;;;0.00;;
26864;SDS011;40618;51.166;10.322;2023-08-07T06:50:47;0.10;;;0.00;;
26864;SDS011;40618;51.166;10.322;2023-08-07T06:53:15;0.00;;;0.00;;
26864;SDS011;40618;51.166;10.322;2023-08-07T06:55:41;3.50;;;0.20;;
26864;SDS011;40618;51.166;10.322;2023-08-07T06:58:07;0.50;;;0.10;;
26864;SDS011;40618;51.166;10.322;2023-08-07T07:00:34;0.10;;;0.00;;
26864;SDS011;40618;51.166;10.322;2023-08-07T07:03:01;1.48;;;0.10;;
26864;SDS011;40618;51.166;10.322;2023-08-07T07:05:27;0.00;;;0.00;;
26864;SDS011;40618;51.166;10.322;2023-08-07T07:07:53;0.00;;;0.00;;
26864;SDS011;40618;51.166;10.322;2023-08-07T07:10:19;0.10;;;0.05;;
26864;SDS011;40618;51.166;10.322;2023-08-07T07:12:46;0.10;;;0.10;;
26864;SDS011;40618;51.166;10.322;2023-08-07T07:15:12;0.00;;;0.00;;
26864;SDS011;40618;51.166;10.322;2023-08-07T07:17:38;0.00;;;0.00;;
26864;SDS011;40618;51.166;10.322;2023-08-07T07:20:04;0.00;;;0.00;;
26864;SDS011;40618;51.166;10.322;2023-08-07T07:22:30;0.13;;;0.05;;
26864;SDS011;40618;51.166;10.322;2023-08-07T07:24:56;4.05;;;0.20;;
26864;SDS011;40618;51.166;10.322;2023-08-07T07:27:21;1.25;;;0.10;;
26864;SDS011;40618;51.166;10.322;2023-08-07T07:29:47;1.23;;;0.10;;
26864;SDS011;40618;51.166;10.322;2023-08-07T07:32:14;0.30;;;0.08;;
26864;SDS011;40618;51.166;10.322;2023-08-07T07:34:39;0.10;;;0.10;;
26864;SDS011;40618;51.166;10.322;2023-08-07T07:37:05;0.13;;;0.10;;
26864;SDS011;40618;51.166;10.322;2023-08-07T07:39:31;0.10;;;0.10;;
26864;SDS011;40618;51.166;10.322;2023-08-07T07:41:56;0.85;;;0.30;;
26864;SDS011;40618;51.166;10.322;2023-08-07T07:44:22;0.10;;;0.10;;
26864;SDS011;40618;51.166;10.322;2023-08-07T07:46:48;0.10;;;0.10;;
26864;SDS011;40618;51.166;10.322;2023-08-07T07:49:14;0.10;;;0.10;;
26864;SDS011;40618;51.166;10.322;2023-08-07T07:51:40;0.85;;;0.20;;
26864;SDS011;40618;51.166;10.322;2023-08-07T07:54:05;0.10;;;0.10;;
26864;SDS011;40618;51.166;10.322;2023-08-07T07:56:31;0.22;;;0.20;;
26864;SDS011;40618;51.166;10.322;2023-08-07T07:58:57;0.95;;;0.03;;
26864;SDS011;40618;51.166;10.322;2023-08-07T08:01:23;0.47;;;0.10;;
26864;SDS011;40618;51.166;10.322;2023-08-07T08:03:48;0.10;;;0.10;;
26864;SDS011;40618;51.166;10.322;2023-08-07T08:06:14;0.00;;;0.00;;
26864;SDS011;40618;51.166;10.322;2023-08-07T08:08:40;0.38;;;0.10;;
26864;SDS011;40618;51.166;10.322;2023-08-07T08:11:07;0.15;;;0.10;;
26864;SDS011;40618;51.166;10.322;2023-08-07T08:13:33;0.00;;;0.00;;
26864;SDS011;40618;51.166;10.322;2023-08-07T08:16:03;0.00;;;0.00;;
26864;SDS011;40618;51.166;10.322;2023-08-07T08:18:30;1.08;;;0.03;;
26864;SDS011;40618;51.166;10.322;2023-08-07T08:20:55;0.10;;;0.03;;
26864;SDS011;40618;51.166;10.322;2023-08-07T08:23:21;0.20;;;0.03;;
26864;SDS011;40618;51.166;10.322;2023-08-07T08:25:47;0.28;;;0.00;;
26864;SDS011;40618;51.166;10.322;2023-08-07T08:28:14;0.00;;;0.00;;
26864;SDS011;40618;51.166;10.322;2023-08-07T08:30:40;0.00;;;0.00;;
26864;SDS011;40618;51.166;10.322;2023-08-07T08:33:07;0.00;;;0.00;;
26864;SDS011;40618;51.166;10.322;2023-08-07T08:35:34;0.32;;;0.05;;
26864;SDS011;40618;51.166;10.322;2023-08-07T08:38:00;0.13;;;0.00;;
26864;SDS011;40618;51.166;10.322;2023-08-07T08:40:26;0.00;;;0.00;;
26864;SDS011;40618;51.166;10.322;2023-08-07T08:42:52;0.00;;;0.00;;
26864;SDS011;40618;51.166;10.322;2023-08-07T08:45:22;0.00;;;0.00;;
26864;SDS011;40618;51.166;10.322;2023-08-07T08:47:51;2.63;;;0.10;;
26864;SDS011;40618;51.166;10.322;2023-08-07T08:50:26;0.00;;;0.00;;
26864;SDS011;40618;51.166;10.322;2023-08-07T08:52:53;0.10;;;0.10;;
26864;SDS011;40618;51.166;10.322;2023-08-07T08:55:25;0.10;;;0.00;;
26864;SDS011;40618;51.166;10.322;2023-08-07T08:57:52;0.20;;;0.10;;
26864;SDS011;40618;51.166;10.322;2023-08-07T09:00:25;0.10;;;0.10;;
26864;SDS011;40618;51.166;10.322;2023-08-07T09:02:52;0.45;;;0.00;;
26864;SDS011;40618;51.166;10.322;2023-08-07T09:05:18;0.22;;;0.10;;
26864;SDS011;40618;51.166;10.322;2023-08-07T09:07:46;0.00;;;0.00;;
26864;SDS011;40618;51.166;10.322;2023-08-07T09:10:13;0.10;;;0.10;;
26864;SDS011;40618;51.166;10.322;2023-08-07T09:12:42;2.08;;;0.10;;
26864;SDS011;40618;51.166;10.322;2023-08-07T09:15:19;0.10;;;0.10;;
26864;SDS011;40618;51.166;10.322;2023-08-07T09:17:49;0.10;;;0.10;;
26864;SDS011;40618;51.166;10.322;2023-08-07T09:20:17;0.08;;;0.08;;
26864;SDS011;40618;51.166;10.322;2023-08-07T09:22:44;0.00;;;0.00;;
26864;SDS011;40618;51.166;10.322;2023-08-07T09:25:11;0.05;;;0.00;;
26864;SDS011;40618;51.166;10.322;2023-08-07T09:27:37;0.55;;;0.30;;
26864;SDS011;40618;51.166;10.322;2023-08-07T09:30:07;0.10;;;0.10;;
26864;SDS011;40618;51.166;10.322;2023-08-07T09:32:34;1.42;;;0.40;;
26864;SDS011;40618;51.166;10.322;2023-08-07T09:35:02;0.70;;;0.28;;
26864;SDS011;40618;51.166;10.322;2023-08-07T09:37:29;0.00;;;0.00;;
26864;SDS011;40618;51.166;10.322;2023-08-07T09:39:55;0.10;;;0.10;;
26864;SDS011;40618;51.166;10.322;2023-08-07T09:42:22;0.00;;;0.00;;
26864;SDS011;40618;51.166;10.322;2023-08-07T09:44:48;0.10;;;0.10;;
26864;SDS011;40618;51.166;10.322;2023-08-07T09:47:17;1.35;;;0.10;;
26864;SDS011;40618;51.166;10.322;2023-08-07T09:56:47;0.10;;;0.10;;
26864;SDS011;40618;51.166;10.322;2023-08-07T09:59:13;0.10;;;0.10;;
26864;SDS011;40618;51.166;10.322;2023-08-07T10:01:39;0.70;;;0.20;;
26864;SDS011;40618;51.166;10.322;2023-08-07T10:04:07;0.20;;;0.10;;
26864;SDS011;40618;51.166;10.322;2023-08-07T10:06:33;0.40;;;0.20;;
26864;SDS011;40618;51.166;10.322;2023-08-07T10:09:00;0.10;;;0.10;;
26864;SDS011;40618;51.166;10.322;2023-08-07T10:11:26;0.20;;;0.20;;
26864;SDS011;40618;51.166;10.322;2023-08-07T10:13:54;0.30;;;0.20;;
26864;SDS011;40618;51.166;10.322;2023-08-07T10:16:22;0.80;;;0.28;;
26864;SDS011;40618;51.166;10.322;2023-08-07T10:18:47;0.05;;;0.05;;
26864;SDS011;40618;51.166;10.322;2023-08-07T10:21:13;0.60;;;0.35;;
26864;SDS011;40618;51.166;10.322;2023-08-07T10:23:39;1.40;;;1.10;;
26864;SDS011;40618;51.166;10.322;2023-08-07T10:26:07;0.73;;;0.40;;
26864;SDS011;40618;51.166;10.322;2023-08-07T10:28:37;7.72;;;0.77;;
26864;SDS011;40618;51.166;10.322;2023-08-07T10:31:08;0.87;;;0.47;;
26864;SDS011;40618;51.166;10.322;2023-08-07T10:33:37;0.30;;;0.30;;
26864;SDS011;40618;51.166;10.322;2023-08-07T10:36:10;0.40;;;0.40;;
26864;SDS011;40618;51.166;10.322;2023-08-07T10:38:36;0.60;;;0.35;;
26864;SDS011;40618;51.166;10.322;2023-08-07T10:41:06;0.30;;;0.30;;
26864;SDS011;40618;51.166;10.322;2023-08-07T10:43:41;0.40;;;0.40;;
26864;SDS011;40618;51.166;10.322;2023-08-07T10:46:10;0.55;;;0.55;;
26864;SDS011;40618;51.166;10.322;2023-08-07T10:48:48;0.70;;;0.40;;
26864;SDS011;40618;51.166;10.322;2023-08-07T10:51:23;0.40;;;0.40;;
26864;SDS011;40618;51.166;10.322;2023-08-07T10:53:58;1.10;;;0.47;;
26864;SDS011;40618;51.166;10.322;2023-08-07T10:56:30;1.17;;;0.60;;
26864;SDS011;40618;51.166;10.322;2023-08-07T10:59:06;0.82;;;0.40;;
26864;SDS011;40618;51.166;10.322;2023-08-07T11:05:18;0.73;;;0.50;;
26864;SDS011;40618;51.166;10.322;2023-08-07T11:07:45;1.63;;;0.60;;
26864;SDS011;40618;51.166;10.322;2023-08-07T11:10:12;0.35;;;0.35;;
26864;SDS011;40618;51.166;10.322;2023-08-07T11:12:42;0.82;;;0.52;;
26864;SDS011;40618;51.166;10.322;2023-08-07T11:15:11;1.05;;;0.40;;
26864;SDS011;40618;51.166;10.322;2023-08-07T11:17:38;1.95;;;0.52;;
26864;SDS011;40618;51.166;10.322;2023-08-07T11:20:06;0.88;;;0.80;;
26864;SDS011;40618;51.166;10.322;2023-08-07T11:22:33;0.65;;;0.65;;
26864;SDS011;40618;51.166;10.322;2023-08-07T11:24:59;1.05;;;0.75;;
26864;SDS011;40618;51.166;10.322;2023-08-07T11:27:25;0.47;;;0.47;;
26864;SDS011;40618;51.166;10.322;2023-08-07T11:29:50;1.25;;;0.88;;
26864;SDS011;40618;51.166;10.322;2023-08-07T11:32:16;1.00;;;0.70;;
26864;SDS011;40618;51.166;10.322;2023-08-07T11:34:49;0.93;;;0.50;;
26864;SDS011;40618;51.166;10.322;2023-08-07T11:37:16;0.73;;;0.73;;
26864;SDS011;40618;51.166;10.322;2023-08-07T11:39:45;1.80;;;0.65;;
26864;SDS011;40618;51.166;10.322;2023-08-07T11:42:10;1.02;;;0.80;;
26864;SDS011;40618;51.166;10.322;2023-08-07T11:44:36;1.10;;;0.68;;
26864;SDS011;40618;51.166;10.322;2023-08-07T11:47:02;1.27;;;0.82;;
26864;SDS011;40618;51.166;10.322;2023-08-07T11:49:28;0.50;;;0.50;;
26864;SDS011;40618;51.166;10.322;2023-08-07T11:51:54;0.60;;;0.60;;
26864;SDS011;40618;51.166;10.322;2023-08-07T11:54:20;1.15;;;0.85;;
26864;SDS011;40618;51.166;10.322;2023-08-07T11:56:47;1.00;;;0.65;;
26864;SDS011;40618;51.166;10.322;2023-08-07T11:59:12;1.48;;;0.75;;
26864;SDS011;40618;51.166;10.322;2023-08-07T12:01:43;1.35;;;0.80;;
26864;SDS011;40618;51.166;10.322;2023-08-07T12:04:09;1.52;;;0.80;;
26864;SDS011;40618;51.166;10.322;2023-08-07T12:06:35;0.60;;;0.60;;
26864;SDS011;40618;51.166;10.322;2023-08-07T12:09:04;1.05;;;0.60;;
26864;SDS011;40618;51.166;10.322;2023-08-07T12:11:33;1.30;;;0.45;;
26864;SDS011;40618;51.166;10.322;2023-08-07T12:14:00;1.27;;;0.63;;
26864;SDS011;40618;51.166;10.322;2023-08-07T12:16:26;1.13;;;0.50;;
26864;SDS011;40618;51.166;10.322;2023-08-07T12:18:59;0.88;;;0.52;;
26864;SDS011;40618;51.166;10.322;2023-08-07T12:21:25;0.93;;;0.70;;
26864;SDS011;40618;51.166;10.322;2023-08-07T12:23:54;0.90;;;0.85;;
26864;SDS011;40618;51.166;10.322;2023-08-07T12:26:21;1.25;;;0.70;;
26864;SDS011;40618;51.166;10.322;2023-08-07T12:28:47;0.50;;;0.50;;
26864;SDS011;40618;51.166;10.322;2023-08-07T12:31:12;0.90;;;0.80;;
26864;SDS011;40618;51.166;10.322;2023-08-07T12:33:38;0.85;;;0.63;;
26864;SDS011;40618;51.166;10.322;2023-08-07T12:36:04;0.60;;;0.50;;
26864;SDS011;40618;51.166;10.322;2023-08-07T12:38:30;0.90;;;0.70;;
26864;SDS011;40618;51.166;10.322;2023-08-07T12:40:56;1.15;;;0.93;;
26864;SDS011;40618;51.166;10.322;2023-08-07T12:43:22;1.85;;;0.75;;
26864;SDS011;40618;51.166;10.322;2023-08-07T12:45:47;1.10;;;0.80;;
26864;SDS011;40618;51.166;10.322;2023-08-07T12:48:13;0.82;;;0.60;;
26864;SDS011;40618;51.166;10.322;2023-08-07T12:50:39;1.77;;;0.52;;
26864;SDS011;40618;51.166;10.322;2023-08-07T12:53:06;1.75;;;0.60;;
26864;SDS011;40618;51.166;10.322;2023-08-07T12:55:33;0.98;;;0.70;;
26864;SDS011;40618;51.166;10.322;2023-08-07T12:57:58;1.88;;;0.73;;
26864;SDS011;40618;51.166;10.322;2023-08-07T13:00:24;1.33;;;0.80;;
26864;SDS011;40618;51.166;10.322;2023-08-07T13:02:51;3.88;;;0.90;;
26864;SDS011;40618;51.166;10.322;2023-08-07T13:05:19;1.08;;;0.80;;
26864;SDS011;40618;51.166;10.322;2023-08-07T13:07:47;1.83;;;0.80;;
26864;SDS011;40618;51.166;10.322;2023-08-07T13:10:13;1.75;;;0.50;;
26864;SDS011;40618;51.166;10.322;2023-08-07T13:12:42;1.05;;;0.70;;
26864;SDS011;40618;51.166;10.322;2023-08-07T13:15:11;2.28;;;0.77;;
26864;SDS011;40618;51.166;10.322;2023-08-07T13:17:39;2.03;;;0.70;;
26864;SDS011;40618;51.166;10.322;2023-08-07T13:20:05;2.33;;;0.70;;
26864;SDS011;40618;51.166;10.322;2023-08-07T13:22:33;0.60;;;0.60;;
26864;SDS011;40618;51.166;10.322;2023-08-07T13:25:03;1.15;;;0.70;;
26864;SDS011;40618;51.166;10.322;2023-08-07T13:27:33;1.52;;;0.90;;
26864;SDS011;40618;51.166;10.322;2023-08-07T13:29:59;4.20;;;1.15;;
26864;SDS011;40618;51.166;10.322;2023-08-07T13:32:26;3.05;;;1.20;;
26864;SDS011;40618;51.166;10.322;2023-08-07T13:34:52;5.00;;;1.10;;
26864;SDS011;40618;51.166;10.322;2023-08-07T13:37:18;2.33;;;1.10;;
26864;SDS011;40618;51.166;10.322;2023-08-07T13:39:44;3.50;;;1.00;;
26864;SDS011;40618;51.166;10.322;2023-08-07T13:42:10;4.35;;;1.60;;
26864;SDS011;40618;51.166;10.322;2023-08-07T13:44:36;2.63;;;1.02;;
26864;SDS011;40618;51.166;10.322;2023-08-07T13:47:03;4.20;;;1.60;;
26864;SDS011;40618;51.166;10.322;2023-08-07T13:49:30;5.13;;;1.73;;
26864;SDS011;40618;51.166;10.322;2023-08-07T13:51:56;1.48;;;1.05;;
26864;SDS011;40618;51.166;10.322;2023-08-07T13:54:21;2.25;;;1.25;;
26864;SDS011;40618;51.166;10.322;2023-08-07T13:56:47;4.15;;;1.52;;
26864;SDS011;40618;51.166;10.322;2023-08-07T13:59:13;2.67;;;1.33;;
26864;SDS011;40618;51.166;10.322;2023-08-07T14:01:39;2.80;;;1.10;;
26864;SDS011;40618;51.166;10.322;2023-08-07T14:04:04;2.05;;;1.10;;
26864;SDS011;40618;51.166;10.322;2023-08-07T14:06:31;3.35;;;1.05;;
26864;SDS011;40618;51.166;10.322;2023-08-07T14:08:56;1.50;;;1.30;;
26864;SDS011;40618;51.166;10.322;2023-08-07T14:11:22;5.10;;;1.50;;
26864;SDS011;40618;51.166;10.322;2023-08-07T14:13:52;2.85;;;1.27;;
26864;SDS011;40618;51.166;10.322;2023-08-07T14:16:18;3.40;;;1.65;;
26864;SDS011;40618;51.166;10.322;2023-08-07T14:18:44;3.05;;;1.30;;
26864;SDS011;40618;51.166;10.322;2023-08-07T14:21:09;2.97;;;1.70;;
26864;SDS011;40618;51.166;10.322;2023-08-07T14:23:35;4.57;;;1.65;;
26864;SDS011;40618;51.166;10.322;2023-08-07T14:26:01;3.70;;;1.63;;
26864;SDS011;40618;51.166;10.322;2023-08-07T14:28:27;3.83;;;1.73;;
26864;SDS011;40618;51.166;10.322;2023-08-07T14:30:53;3.42;;;1.80;;
26864;SDS011;40618;51.166;10.322;2023-08-07T14:33:23;2.20;;;1.40;;
26864;SDS011;40618;51.166;10.322;2023-08-07T14:35:48;3.47;;;1.67;;
26864;SDS011;40618;51.166;10.322;2023-08-07T14:38:14;5.35;;;1.88;;
26864;SDS011;40618;51.166;10.322;2023-08-07T14:40:39;2.75;;;1.70;;
26864;SDS011;40618;51.166;10.322;2023-08-07T14:43:06;2.30;;;1.48;;
26864;SDS011;40618;51.166;10.322;2023-08-07T14:45:32;5.18;;;1.73;;
26864;SDS011;40618;51.166;10.322;2023-08-07T14:47:57;2.95;;;1.17;;
26864;SDS011;40618;51.166;10.322;2023-08-07T14:50:23;3.15;;;1.55;;